createdAt,value
2022-11-17T00:01:18.610Z,99063.78
2022-11-17T00:03:45.593Z,99072.56
2022-11-17T00:06:12.440Z,99066.91
2022-11-17T00:08:39.206Z,99072.88
2022-11-17T00:11:06.298Z,99069.00
2022-11-17T00:13:51.437Z,99067.50
2022-11-17T00:16:18.954Z,99049.25
2022-11-17T00:19:04.442Z,99047.34
2022-11-17T00:21:31.528Z,99036.00
2022-11-17T00:23:58.402Z,99040.37
2022-11-17T00:26:35.134Z,99037.09
2022-11-17T00:29:04.690Z,99040.13
2022-11-17T00:31:51.443Z,99043.47
2022-11-17T00:34:19.819Z,99041.41
2022-11-17T00:36:50.532Z,99045.22
2022-11-17T00:39:18.047Z,99045.72
2022-11-17T00:41:44.979Z,99047.72
2022-11-17T00:44:11.850Z,99048.31
2022-11-17T00:46:39.193Z,99052.41
2022-11-17T00:49:06.888Z,99054.63
2022-11-17T00:51:33.758Z,99069.91
2022-11-17T00:54:00.928Z,99071.41
2022-11-17T00:56:28.153Z,99065.84
2022-11-17T00:58:54.897Z,99061.59
2022-11-17T01:01:21.663Z,99058.44
2022-11-17T01:03:48.564Z,99052.50
2022-11-17T01:06:16.640Z,99056.25
2022-11-17T01:08:43.438Z,99057.03
2022-11-17T01:11:12.377Z,99064.44
2022-11-17T01:13:39.872Z,99063.84
2022-11-17T01:16:11.624Z,99056.56
2022-11-17T01:18:39.106Z,99059.28
2022-11-17T01:21:16.066Z,99057.03
2022-11-17T01:23:43.492Z,99054.47
2022-11-17T01:26:12.282Z,99055.06
2022-11-17T01:28:39.595Z,99044.53
2022-11-17T01:31:07.757Z,99039.97
2022-11-17T01:33:35.134Z,99036.81
2022-11-17T01:36:03.219Z,99038.25
2022-11-17T01:38:30.316Z,99037.38
2022-11-17T01:40:57.870Z,99036.28
2022-11-17T01:43:38.013Z,99045.00
2022-11-17T01:46:05.045Z,99044.34
2022-11-17T01:48:31.817Z,99038.13
2022-11-17T01:50:58.632Z,99036.78
2022-11-17T01:53:28.651Z,99037.31
2022-11-17T01:56:01.924Z,99036.38
2022-11-17T01:58:31.570Z,99027.72
2022-11-17T02:00:58.343Z,99025.09
2022-11-17T02:03:25.587Z,99012.63
2022-11-17T02:05:56.031Z,99011.28
2022-11-17T02:08:24.557Z,99007.91
2022-11-17T02:10:52.162Z,99009.72
2022-11-17T02:13:20.267Z,98996.13
2022-11-17T02:15:46.960Z,98994.72
2022-11-17T02:18:15.158Z,98995.69
2022-11-17T02:20:49.367Z,98999.16
2022-11-17T02:23:22.097Z,99004.06
2022-11-17T02:26:07.632Z,98995.50
2022-11-17T02:28:36.344Z,98987.72
2022-11-17T02:31:03.122Z,98979.09
2022-11-17T02:33:51.370Z,98971.97
2022-11-17T02:36:21.310Z,98975.50
2022-11-17T02:38:56.738Z,98985.28
2022-11-17T02:41:29.469Z,98994.16
2022-11-17T02:44:05.408Z,98998.78
2022-11-17T02:46:45.522Z,98982.59
2022-11-17T02:49:24.908Z,98989.13
2022-11-17T02:51:53.443Z,98987.91
2022-11-17T02:54:22.916Z,98977.13
2022-11-17T02:56:49.986Z,98981.75
2022-11-17T02:59:18.315Z,98979.47
2022-11-17T03:01:48.414Z,98978.38
2022-11-17T03:04:18.330Z,98980.97
2022-11-17T03:07:03.538Z,98988.63
2022-11-17T03:09:43.938Z,98980.19
2022-11-17T03:12:13.506Z,98979.31
2022-11-17T03:14:46.387Z,98978.41
2022-11-17T03:17:19.322Z,98979.41
2022-11-17T03:19:50.308Z,98984.03
2022-11-17T03:22:43.696Z,98976.81
2022-11-17T03:25:14.492Z,98993.03
2022-11-17T03:27:44.544Z,98995.50
2022-11-17T03:30:12.720Z,99001.75
2022-11-17T03:32:43.816Z,99001.81
2022-11-17T03:35:12.838Z,99007.09
2022-11-17T03:37:42.982Z,99004.81
2022-11-17T03:40:11.614Z,99010.37
2022-11-17T03:42:40.726Z,99008.53
2022-11-17T03:45:19.686Z,99016.91
2022-11-17T03:47:47.243Z,99012.59
2022-11-17T03:50:28.572Z,99007.97
2022-11-17T03:52:55.325Z,99006.81
2022-11-17T03:55:27.211Z,98997.50
2022-11-17T03:57:59.885Z,98995.56
2022-11-17T04:00:26.711Z,98994.87
2022-11-17T04:02:58.953Z,98989.38
2022-11-17T04:05:26.279Z,98992.56
2022-11-17T04:07:52.958Z,98998.59
2022-11-17T04:10:20.832Z,98992.41
2022-11-17T04:13:07.372Z,98999.62
2022-11-17T04:15:52.476Z,98985.47
2022-11-17T04:18:20.003Z,98990.72
2022-11-17T04:20:50.033Z,98987.19
2022-11-17T04:23:16.845Z,98992.25
2022-11-17T04:26:03.292Z,98994.47
2022-11-17T04:28:37.176Z,98996.16
2022-11-17T04:31:08.790Z,98995.87
2022-11-17T04:33:36.550Z,98999.72
2022-11-17T04:36:04.349Z,98998.88
2022-11-17T04:38:31.172Z,98998.47
2022-11-17T04:41:20.535Z,99003.78
2022-11-17T04:43:47.401Z,99004.13
2022-11-17T04:46:14.501Z,99001.50
2022-11-17T04:48:41.257Z,98999.53
2022-11-17T04:51:07.994Z,98997.16
2022-11-17T04:53:34.880Z,99005.91
2022-11-17T04:56:02.025Z,98993.59
2022-11-17T04:58:29.131Z,99002.09
2022-11-17T05:00:55.913Z,99002.91
2022-11-17T05:03:22.969Z,99008.22
2022-11-17T05:05:49.688Z,99016.91
2022-11-17T05:08:16.378Z,99012.84
2022-11-17T05:11:01.872Z,99013.97
2022-11-17T05:13:28.613Z,99012.81
2022-11-17T05:16:14.990Z,99019.53
2022-11-17T05:18:42.450Z,99018.53
2022-11-17T05:21:10.397Z,99028.00
2022-11-17T05:23:56.132Z,99027.31
2022-11-17T05:26:24.510Z,99033.47
2022-11-17T05:28:51.426Z,99042.91
2022-11-17T05:31:18.206Z,99030.44
2022-11-17T05:33:45.106Z,99030.03
2022-11-17T05:36:12.366Z,99034.25
2022-11-17T05:38:39.257Z,99039.53
2022-11-17T05:41:06.313Z,99041.50
2022-11-17T05:43:33.710Z,99049.47
2022-11-17T05:46:00.952Z,99047.91
2022-11-17T05:48:27.836Z,99054.94
2022-11-17T05:50:57.956Z,99057.59
2022-11-17T05:53:25.130Z,99064.72
2022-11-17T05:55:52.323Z,99066.38
2022-11-17T05:58:22.763Z,99066.22
2022-11-17T06:00:49.813Z,99070.63
2022-11-17T06:03:37.102Z,99079.34
2022-11-17T06:06:04.244Z,99076.59
2022-11-17T06:08:31.234Z,99074.88
2022-11-17T06:10:57.961Z,99077.44
2022-11-17T06:13:28.102Z,99087.31
2022-11-17T06:15:59.729Z,99084.88
2022-11-17T06:18:29.074Z,99092.78
2022-11-17T06:20:55.824Z,99097.22
2022-11-17T06:23:26.265Z,99099.59
2022-11-17T06:25:53.161Z,99103.59
2022-11-17T06:28:21.079Z,99096.25
2022-11-17T06:30:48.715Z,99083.22
2022-11-17T06:33:17.364Z,99086.50
2022-11-17T06:35:44.918Z,99085.91
2022-11-17T06:38:11.876Z,99087.53
2022-11-17T06:40:38.764Z,99103.72
2022-11-17T06:43:09.928Z,99106.38
2022-11-17T06:45:41.131Z,99105.19
2022-11-17T06:48:08.674Z,99102.56
2022-11-17T06:50:35.459Z,99097.97
2022-11-17T06:53:04.036Z,99102.13
2022-11-17T06:55:31.110Z,99106.34
2022-11-17T06:58:01.666Z,99106.91
2022-11-17T07:00:33.303Z,99111.38
2022-11-17T07:03:13.783Z,99105.91
2022-11-17T07:05:40.739Z,99105.44
2022-11-17T07:08:08.465Z,99099.81
2022-11-17T07:10:36.270Z,99109.84
2022-11-17T07:13:03.466Z,99103.31
2022-11-17T07:15:30.817Z,99087.31
2022-11-17T07:17:57.658Z,99092.44
2022-11-17T07:20:24.533Z,99096.97
2022-11-17T07:22:51.422Z,99105.94
2022-11-17T07:25:22.259Z,99099.16
2022-11-17T07:27:49.651Z,99099.00
2022-11-17T07:30:16.590Z,99095.38
2022-11-17T07:32:43.672Z,99091.97
2022-11-17T07:35:10.596Z,99100.16
2022-11-17T07:37:38.182Z,99081.63
2022-11-17T07:40:10.411Z,99080.22
2022-11-17T07:42:37.091Z,99087.22
2022-11-17T07:45:03.992Z,99078.81
2022-11-17T07:47:31.316Z,99086.69
2022-11-17T07:49:58.066Z,99078.78
2022-11-17T07:52:27.787Z,99079.03
2022-11-17T07:55:03.918Z,99094.72
2022-11-17T07:57:31.662Z,99088.44
2022-11-17T07:59:58.556Z,99095.88
2022-11-17T08:02:28.731Z,99087.56
2022-11-17T08:04:55.453Z,99084.38
2022-11-17T08:07:22.938Z,99076.25
2022-11-17T08:09:51.750Z,99081.38
2022-11-17T08:12:18.507Z,99077.78
2022-11-17T08:14:45.432Z,99080.22
2022-11-17T08:17:12.144Z,99081.72
2022-11-17T08:19:38.985Z,99083.66
2022-11-17T08:22:06.168Z,99088.44
2022-11-17T08:24:32.976Z,99082.91
2022-11-17T08:27:00.349Z,99086.72
2022-11-17T08:29:28.336Z,99086.91
2022-11-17T08:31:55.300Z,99081.97
2022-11-17T08:34:22.082Z,99088.28
2022-11-17T08:36:48.788Z,99088.41
2022-11-17T08:39:15.693Z,99089.62
2022-11-17T08:41:42.452Z,99084.59
2022-11-17T08:44:09.457Z,99078.25
2022-11-17T08:46:36.206Z,99072.25
2022-11-17T08:49:03.182Z,99072.41
2022-11-17T08:51:29.998Z,99079.06
2022-11-17T08:53:56.970Z,99081.53
2022-11-17T08:56:23.800Z,99065.53
2022-11-17T08:58:50.589Z,99063.50
2022-11-17T09:01:17.514Z,99068.25
2022-11-17T09:03:46.039Z,99071.56
2022-11-17T09:06:13.415Z,99075.22
2022-11-17T09:08:46.594Z,99089.34
2022-11-17T09:11:23.114Z,99084.44
2022-11-17T09:13:49.971Z,99094.94
2022-11-17T09:16:18.013Z,99094.13
2022-11-17T09:18:45.889Z,99086.09
2022-11-17T09:21:15.481Z,99080.16
2022-11-17T09:23:43.054Z,99083.62
2022-11-17T09:26:11.443Z,99076.22
2022-11-17T09:28:39.088Z,99073.84
2022-11-17T09:31:09.312Z,99073.28
2022-11-17T09:33:36.523Z,99081.91
2022-11-17T09:36:04.107Z,99070.56
2022-11-17T09:38:31.337Z,99070.31
2022-11-17T09:40:59.491Z,99070.34
2022-11-17T09:43:28.942Z,99069.59
2022-11-17T09:46:07.524Z,99071.84
2022-11-17T09:48:44.961Z,99059.44
2022-11-17T09:51:16.431Z,99046.56
2022-11-17T09:53:52.127Z,99051.62
2022-11-17T09:56:19.026Z,99044.69
2022-11-17T09:58:55.687Z,99044.00
2022-11-17T10:01:22.910Z,99048.47
2022-11-17T10:03:51.316Z,99051.62
2022-11-17T10:06:22.300Z,99050.25
2022-11-17T10:09:08.086Z,99029.75
2022-11-17T10:11:37.783Z,99034.06
2022-11-17T10:14:12.415Z,99042.63
2022-11-17T10:16:40.940Z,99043.03
2022-11-17T10:19:19.399Z,99040.53
2022-11-17T10:21:48.001Z,99038.50
2022-11-17T10:24:33.460Z,99031.38
2022-11-17T10:27:00.677Z,99027.19
2022-11-17T10:29:29.463Z,99016.81
2022-11-17T10:31:58.743Z,99020.22
2022-11-17T10:34:38.908Z,99018.66
2022-11-17T10:37:13.597Z,99018.78
2022-11-17T10:39:42.328Z,99027.03
2022-11-17T10:42:22.698Z,99024.47
2022-11-17T10:44:54.693Z,99025.16
2022-11-17T10:47:34.172Z,99035.56
2022-11-17T10:50:20.253Z,99029.16
2022-11-17T10:52:47.883Z,99030.31
2022-11-17T10:55:21.281Z,99033.63
2022-11-17T10:57:49.768Z,99025.03
2022-11-17T11:00:28.195Z,99023.88
2022-11-17T11:03:16.765Z,99027.84
2022-11-17T11:05:56.344Z,99023.47
2022-11-17T11:08:25.399Z,99025.09
2022-11-17T11:10:56.055Z,99024.78
2022-11-17T11:13:42.173Z,99025.44
2022-11-17T11:16:11.070Z,99025.09
2022-11-17T11:18:38.764Z,99014.78
2022-11-17T11:21:12.800Z,99023.84
2022-11-17T11:24:00.534Z,99022.06
2022-11-17T11:26:42.686Z,99028.16
2022-11-17T11:29:23.905Z,99025.37
2022-11-17T11:32:02.441Z,99019.31
2022-11-17T11:34:41.491Z,99015.94
2022-11-17T11:37:15.402Z,99018.84
2022-11-17T11:39:48.429Z,99003.34
2022-11-17T11:42:50.916Z,99015.81
2022-11-17T11:45:29.825Z,99017.03
2022-11-17T11:47:56.570Z,99005.16
2022-11-17T11:50:25.530Z,99013.38
2022-11-17T11:52:58.112Z,99008.22
2022-11-17T11:55:28.145Z,99008.16
2022-11-17T11:58:01.148Z,98999.34
2022-11-17T12:00:27.915Z,98994.41
2022-11-17T12:03:03.368Z,99000.28
2022-11-17T12:05:48.939Z,99008.50
2022-11-17T12:08:28.123Z,99013.09
2022-11-17T12:10:58.244Z,99018.31
2022-11-17T12:13:25.585Z,99010.84
2022-11-17T12:16:12.587Z,99004.19
2022-11-17T12:18:39.508Z,98994.75
2022-11-17T12:21:12.686Z,98988.28
2022-11-17T12:24:02.446Z,98987.19
2022-11-17T12:26:30.353Z,98985.66
2022-11-17T12:29:16.131Z,98995.22
2022-11-17T12:31:44.618Z,98989.13
2022-11-17T12:34:24.169Z,98989.50
2022-11-17T12:37:09.684Z,98982.31
2022-11-17T12:39:51.927Z,98986.25
2022-11-17T12:42:18.752Z,98988.84
2022-11-17T12:45:04.592Z,98990.91
2022-11-17T12:47:35.464Z,98982.88
2022-11-17T12:50:08.449Z,98995.87
2022-11-17T12:52:52.733Z,99003.06
2022-11-17T12:55:28.655Z,99005.38
2022-11-17T12:57:59.559Z,99005.28
2022-11-17T13:00:29.789Z,99010.94
2022-11-17T13:02:59.264Z,98999.88
2022-11-17T13:05:29.614Z,99003.53
2022-11-17T13:08:34.109Z,99004.50
2022-11-17T13:11:12.815Z,99003.16
2022-11-17T13:13:45.488Z,99002.13
2022-11-17T13:16:28.024Z,98996.41
2022-11-17T13:18:56.905Z,98993.72
2022-11-17T13:21:26.592Z,98997.56
2022-11-17T13:23:53.945Z,98991.50
2022-11-17T13:26:28.375Z,98994.25
2022-11-17T13:29:14.943Z,98998.78
2022-11-17T13:31:41.989Z,98997.09
2022-11-17T13:34:11.748Z,99000.22
2022-11-17T13:36:53.496Z,99009.13
2022-11-17T13:39:25.771Z,99000.19
2022-11-17T13:41:54.934Z,98998.78
2022-11-17T13:44:26.522Z,98998.94
2022-11-17T13:46:55.798Z,99001.91
2022-11-17T13:49:35.329Z,98996.63
2022-11-17T13:52:03.327Z,98996.28
2022-11-17T13:54:30.701Z,98987.19
2022-11-17T13:57:07.770Z,98996.88
2022-11-17T13:59:39.393Z,99001.69
2022-11-17T14:02:15.569Z,99000.59
2022-11-17T14:04:45.038Z,99012.97
2022-11-17T14:07:15.422Z,99012.66
2022-11-17T14:09:44.057Z,99000.91
2022-11-17T14:12:17.133Z,99006.16
2022-11-17T14:14:54.254Z,99006.97
2022-11-17T14:17:22.445Z,99016.28
2022-11-17T14:19:49.380Z,99014.06
2022-11-17T14:22:23.537Z,99020.16
2022-11-17T14:24:56.515Z,99023.22
2022-11-17T14:27:30.080Z,99027.47
2022-11-17T14:29:56.918Z,99025.25
2022-11-17T14:32:23.744Z,99035.47
2022-11-17T14:34:50.578Z,99020.53
2022-11-17T14:37:17.575Z,99020.53
2022-11-17T14:39:44.562Z,99019.13
2022-11-17T14:42:14.022Z,99015.22
2022-11-17T14:44:41.218Z,99018.31
2022-11-17T14:47:08.230Z,99025.47
2022-11-17T14:49:35.395Z,99028.31
2022-11-17T14:52:03.070Z,99039.91
2022-11-17T14:54:30.821Z,99041.19
2022-11-17T14:56:57.596Z,99029.81
2022-11-17T14:59:24.521Z,99028.47
2022-11-17T15:01:51.501Z,99034.31
2022-11-17T15:04:48.954Z,99029.09
2022-11-17T15:07:05.414Z,99024.25
2022-11-17T15:09:32.356Z,99026.22
2022-11-17T15:11:59.221Z,99038.97
2022-11-17T15:14:28.118Z,99042.41
2022-11-17T15:16:54.957Z,99052.06
2022-11-17T15:19:21.648Z,99066.94
2022-11-17T15:21:48.394Z,99077.00
2022-11-17T15:24:15.634Z,99068.34
2022-11-17T15:26:42.572Z,99064.03
2022-11-17T15:29:12.441Z,99056.28
2022-11-17T15:31:39.206Z,99058.00
2022-11-17T15:34:06.033Z,99058.00
2022-11-17T15:36:33.014Z,99041.50
2022-11-17T15:39:00.722Z,99038.38
2022-11-17T15:41:32.565Z,99037.34
2022-11-17T15:43:59.788Z,99031.94
2022-11-17T15:46:26.557Z,99027.22
2022-11-17T15:48:53.403Z,99021.41
2022-11-17T15:51:21.145Z,99022.50
2022-11-17T15:53:48.505Z,99019.56
2022-11-17T15:56:19.664Z,99021.69
2022-11-17T15:58:46.939Z,99016.81
2022-11-17T16:01:14.915Z,99012.72
2022-11-17T16:03:43.903Z,99011.53
2022-11-17T16:06:11.239Z,99023.97
2022-11-17T16:08:38.922Z,99034.72
2022-11-17T16:11:06.194Z,99044.78
2022-11-17T16:13:33.291Z,99039.47
2022-11-17T16:16:00.025Z,99034.84
2022-11-17T16:18:27.179Z,99046.16
2022-11-17T16:20:54.136Z,99054.78
2022-11-17T16:23:21.000Z,99050.09
2022-11-17T16:25:48.537Z,99041.31
2022-11-17T16:28:16.867Z,99042.91
2022-11-17T16:30:43.653Z,99058.47
2022-11-17T16:33:11.840Z,99063.16
2022-11-17T16:35:39.396Z,99056.28
2022-11-17T16:38:06.297Z,99059.44
2022-11-17T16:40:35.398Z,99063.09
2022-11-17T16:43:02.204Z,99061.16
2022-11-17T16:45:28.995Z,99066.38
2022-11-17T16:47:55.728Z,99071.25
2022-11-17T16:50:22.491Z,99070.34
2022-11-17T16:52:49.398Z,99067.22
2022-11-17T16:55:16.450Z,99067.03
2022-11-17T16:57:43.399Z,99060.91
2022-11-17T17:00:10.850Z,99057.94
2022-11-17T17:02:37.628Z,99061.19
2022-11-17T17:05:04.532Z,99065.63
2022-11-17T17:07:31.299Z,99066.75
2022-11-17T17:09:58.230Z,99075.66
2022-11-17T17:12:25.084Z,99080.97
2022-11-17T17:14:51.760Z,99077.69
2022-11-17T17:17:18.605Z,99082.38
2022-11-17T17:19:45.359Z,99076.13
2022-11-17T17:22:12.125Z,99080.31
2022-11-17T17:24:38.847Z,99080.94
2022-11-17T17:27:07.357Z,99085.44
2022-11-17T17:29:34.130Z,99083.28
2022-11-17T17:32:00.972Z,99072.09
2022-11-17T17:34:27.723Z,99057.56
2022-11-17T17:36:54.411Z,99054.38
2022-11-17T17:39:21.173Z,99058.47
2022-11-17T17:41:47.937Z,99064.28
2022-11-17T17:44:16.400Z,99063.50
2022-11-17T17:46:43.439Z,99052.06
2022-11-17T17:49:10.406Z,99044.97
2022-11-17T17:51:42.479Z,99048.34
2022-11-17T17:54:13.323Z,99057.66
2022-11-17T17:56:40.017Z,99061.41
2022-11-17T17:59:06.875Z,99067.72
2022-11-17T18:01:33.913Z,99068.66
2022-11-17T18:04:05.275Z,99065.09
2022-11-17T18:06:39.152Z,99078.75
2022-11-17T18:09:06.697Z,99072.31
2022-11-17T18:11:33.727Z,99060.69
2022-11-17T18:14:00.757Z,99059.22
2022-11-17T18:16:29.213Z,99070.03
2022-11-17T18:18:57.241Z,99067.47
2022-11-17T18:21:23.959Z,99065.44
2022-11-17T18:23:52.312Z,99059.16
2022-11-17T18:26:20.377Z,99059.84
2022-11-17T18:28:57.874Z,99065.16
2022-11-17T18:31:25.763Z,99072.47
2022-11-17T18:33:53.409Z,99076.66
2022-11-17T18:36:21.382Z,99074.34
2022-11-17T18:38:48.095Z,99078.00
2022-11-17T18:41:16.011Z,99077.81
2022-11-17T18:43:43.410Z,99081.31
2022-11-17T18:46:11.657Z,99077.19
2022-11-17T18:48:39.650Z,99079.50
2022-11-17T18:51:22.752Z,99076.38
2022-11-17T18:53:54.370Z,99076.78
2022-11-17T18:56:25.576Z,99088.09
2022-11-17T18:58:52.651Z,99095.66
2022-11-17T19:01:20.815Z,99090.62
2022-11-17T19:03:48.640Z,99087.50
2022-11-17T19:06:16.730Z,99080.41
2022-11-17T19:08:44.109Z,99078.41
2022-11-17T19:11:11.993Z,99066.94
2022-11-17T19:13:39.779Z,99074.06
2022-11-17T19:16:06.766Z,99076.81
2022-11-17T19:18:33.721Z,99075.53
2022-11-17T19:21:08.584Z,99071.94
2022-11-17T19:23:36.313Z,99075.59
2022-11-17T19:26:04.836Z,99078.19
2022-11-17T19:28:31.918Z,99075.03
2022-11-17T19:31:06.397Z,99081.50
2022-11-17T19:33:33.922Z,99079.78
2022-11-17T19:36:04.590Z,99080.53
2022-11-17T19:38:34.004Z,99082.88
2022-11-17T19:41:27.046Z,99082.53
2022-11-17T19:43:54.472Z,99082.66
2022-11-17T19:46:21.639Z,99090.56
2022-11-17T19:48:48.381Z,99082.34
2022-11-17T19:51:17.579Z,99071.78
2022-11-17T19:53:44.607Z,99066.41
2022-11-17T19:56:11.616Z,99071.78
2022-11-17T19:58:38.485Z,99066.50
2022-11-17T20:01:14.401Z,99060.50
2022-11-17T20:03:41.770Z,99066.94
2022-11-17T20:06:09.914Z,99066.66
2022-11-17T20:08:36.663Z,99062.41
2022-11-17T20:11:06.417Z,99065.50
2022-11-17T20:13:33.240Z,99081.84
2022-11-17T20:16:00.843Z,99076.25
2022-11-17T20:18:28.100Z,99085.72
2022-11-17T20:20:54.871Z,99081.00
2022-11-17T20:23:22.326Z,99074.22
2022-11-17T20:25:49.089Z,99074.81
2022-11-17T20:28:16.012Z,99080.44
2022-11-17T20:30:42.731Z,99086.47
2022-11-17T20:33:09.639Z,99074.75
2022-11-17T20:35:37.578Z,99077.31
2022-11-17T20:38:04.878Z,99086.37
2022-11-17T20:40:32.495Z,99082.69
2022-11-17T20:42:59.231Z,99086.78
2022-11-17T20:45:26.230Z,99075.88
2022-11-17T20:47:52.957Z,99087.94
2022-11-17T20:50:19.582Z,99084.91
2022-11-17T20:52:46.298Z,99080.78
2022-11-17T20:55:13.018Z,99074.34
2022-11-17T20:57:39.920Z,99076.13
2022-11-17T21:00:07.454Z,99069.66
2022-11-17T21:02:34.133Z,99071.69
2022-11-17T21:05:00.928Z,99076.28
2022-11-17T21:07:27.721Z,99087.41
2022-11-17T21:09:54.549Z,99082.97
2022-11-17T21:12:21.232Z,99078.13
2022-11-17T21:14:48.187Z,99083.84
2022-11-17T21:17:34.901Z,99078.34
2022-11-17T21:20:01.698Z,99075.69
2022-11-17T21:22:28.616Z,99074.25
2022-11-17T21:24:55.477Z,99077.97
2022-11-17T21:27:23.124Z,99065.53
2022-11-17T21:29:49.883Z,99062.41
2022-11-17T21:32:16.607Z,99060.62
2022-11-17T21:34:48.545Z,99064.28
2022-11-17T21:37:16.497Z,99065.44
2022-11-17T21:39:43.168Z,99061.34
2022-11-17T21:42:09.796Z,99056.41
2022-11-17T21:44:36.526Z,99038.44
2022-11-17T21:47:03.272Z,99040.22
2022-11-17T21:49:30.178Z,99032.72
2022-11-17T21:51:56.947Z,99034.03
2022-11-17T21:54:23.693Z,99030.31
2022-11-17T21:56:50.419Z,99024.53
2022-11-17T21:59:17.550Z,99034.28
2022-11-17T22:01:44.429Z,99032.13
2022-11-17T22:04:12.380Z,99027.34
2022-11-17T22:06:39.511Z,99025.31
2022-11-17T22:09:06.596Z,99030.16
2022-11-17T22:11:36.748Z,99024.91
2022-11-17T22:14:20.334Z,99022.94
2022-11-17T22:16:48.244Z,99007.78
2022-11-17T22:19:16.355Z,99024.87
2022-11-17T22:21:43.448Z,99023.31
2022-11-17T22:24:11.409Z,99031.09
2022-11-17T22:26:38.777Z,99027.59
2022-11-17T22:29:06.448Z,99027.09
2022-11-17T22:31:33.182Z,99020.56
2022-11-17T22:33:59.959Z,99007.97
2022-11-17T22:36:26.764Z,99007.97
2022-11-17T22:38:53.704Z,99007.31
2022-11-17T22:41:21.287Z,99000.31
2022-11-17T22:43:48.856Z,99006.31
2022-11-17T22:46:15.514Z,98996.84
2022-11-17T22:48:42.241Z,98994.56
2022-11-17T22:51:09.670Z,98998.12
2022-11-17T22:53:36.669Z,98997.63
2022-11-17T22:56:04.803Z,99003.56
2022-11-17T22:58:32.131Z,98997.81
2022-11-17T23:01:04.017Z,98989.22
2022-11-17T23:03:30.947Z,98976.81
2022-11-17T23:06:01.166Z,98976.72
2022-11-17T23:08:28.132Z,98981.09
2022-11-17T23:11:21.881Z,98991.97
2022-11-17T23:13:46.497Z,98988.41
2022-11-17T23:16:13.178Z,98980.34
2022-11-17T23:18:39.895Z,98975.84
2022-11-17T23:21:07.680Z,98976.25
2022-11-17T23:23:38.362Z,98953.78
2022-11-17T23:26:06.283Z,98947.69
2022-11-17T23:28:33.047Z,98950.09
2022-11-17T23:31:00.514Z,98949.59
2022-11-17T23:33:32.059Z,98953.91
2022-11-17T23:35:58.850Z,98948.25
2022-11-17T23:38:25.547Z,98953.53
2022-11-17T23:40:53.495Z,98955.97
2022-11-17T23:43:20.227Z,98958.84
2022-11-17T23:45:47.047Z,98953.75
2022-11-17T23:48:13.730Z,98962.91
2022-11-17T23:50:40.503Z,98977.16
2022-11-17T23:53:07.167Z,98960.75
2022-11-17T23:55:33.857Z,98971.63
2022-11-17T23:58:00.581Z,98972.13
